Cedar Ridge, Missouri
Current Conditions -  °F | °C
As of 4:15 PM on Tuesday 25 Nov 2014 (Local Time) from KH21 Reporting Station
Clear Clear  
Wind Chill: 38°   Ceiling: Unl
Heat Index: 41°   Visibility: 10mi
Dew Point: 16°   Wind: 5mph
Humidity: 36%   Direction: 210°SSW
Pressure: 30.14"   Gusts: NA
Location:  37.5724°N, 92.9325°W
Report Text: KH21 252215Z AUTO 21004KT 10SM CLR 05/M09 A3014 RMK AO2
Loading
Personal Weather Stations






























Interactive Weather Map New forecast layout! Learn more

10-Day Weather Forecast

Advertisements
Track Severe Weather on mobile